Time;durP1;ratioP1;P1;durP2;ratioP2;P2;SDS_P1;SDS_P2;PMS_P1;PMS_P2;Temp;Humidity;BMP_temperature;BMP_pressure;BME280_temperature;BME280_humidity;BME280_pressure;Samples;Min_cycle;Max_cycle;Signal;HPM_P1;HPM_P2
2021/01/12 00:01:13;;;;;;;1.40;1.03;;;5.50;99.90;;;;;;5058846;28;20191;-77
2021/01/12 00:03:38;;;;;;;0.87;0.87;;;5.50;99.90;;;;;;5059270;28;20671;-78
2021/01/12 00:06:04;;;;;;;0.87;0.80;;;5.50;99.90;;;;;;5076257;28;20158;-78
2021/01/12 00:08:29;;;;;;;1.93;1.83;;;5.50;99.90;;;;;;5074616;28;20213;-78
2021/01/12 00:10:55;;;;;;;1.03;1.03;;;5.40;99.90;;;;;;5058722;28;20175;-78
2021/01/12 00:13:22;;;;;;;4.50;2.13;;;5.50;99.90;;;;;;5069381;28;20553;-78
2021/01/12 00:15:48;;;;;;;1.37;1.30;;;5.50;99.90;;;;;;5078484;28;20180;-78
2021/01/12 00:18:13;;;;;;;2.00;1.73;;;5.50;99.90;;;;;;5097086;28;20166;-78
2021/01/12 00:20:39;;;;;;;1.70;1.60;;;5.50;99.90;;;;;;5078655;28;20557;-78
2021/01/12 00:23:04;;;;;;;0.53;0.53;;;5.50;99.90;;;;;;5072166;28;20175;-77
2021/01/12 00:25:30;;;;;;;5.33;2.03;;;5.50;99.90;;;;;;5076201;28;20187;-78
2021/01/12 00:27:55;;;;;;;2.03;1.50;;;5.50;99.90;;;;;;5062028;28;20637;-77
2021/01/12 00:30:22;;;;;;;1.63;1.57;;;5.50;99.90;;;;;;5078168;28;20173;-78
2021/01/12 00:32:47;;;;;;;1.33;1.30;;;5.50;99.90;;;;;;5087177;28;20656;-78
2021/01/12 00:35:13;;;;;;;2.57;2.37;;;5.50;99.90;;;;;;5076273;28;20207;-80
2021/01/12 00:37:38;;;;;;;0.67;0.67;;;5.50;99.90;;;;;;5060797;28;20183;-79
2021/01/12 00:40:05;;;;;;;2.40;2.30;;;5.50;99.90;;;;;;5075552;28;20228;-78
2021/01/12 00:42:30;;;;;;;1.20;1.10;;;5.50;99.90;;;;;;5072031;28;20195;-78
2021/01/12 00:44:56;;;;;;;1.33;1.23;;;5.60;99.90;;;;;;5076054;28;20183;-78
2021/01/12 00:47:24;;;;;;;3.60;2.60;;;5.60;99.90;;;;;;5058293;28;20170;-79
2021/01/12 00:49:50;;;;;;;2.30;1.43;;;5.60;99.90;;;;;;5057399;28;20220;-78
2021/01/12 00:52:16;;;;;;;0.63;0.63;;;5.60;99.90;;;;;;5057833;28;20167;-78
2021/01/12 00:54:41;;;;;;;2.67;2.13;;;5.60;99.90;;;;;;5057779;28;20195;-78
2021/01/12 00:57:07;;;;;;;1.83;1.47;;;5.60;99.90;;;;;;5059772;28;20201;-78
2021/01/12 00:59:33;;;;;;;2.33;2.23;;;5.70;99.90;;;;;;5075819;28;20182;-78
2021/01/12 01:02:00;;;;;;;4.20;1.30;;;5.60;99.90;;;;;;5075596;28;20665;-78
2021/01/12 01:04:26;;;;;;;2.13;1.90;;;5.60;99.90;;;;;;5091513;28;20198;-78
2021/01/12 01:06:52;;;;;;;1.67;1.57;;;5.70;99.90;;;;;;5096291;28;20165;-78
2021/01/12 01:09:17;;;;;;;2.20;2.10;;;5.60;99.90;;;;;;5077410;28;20598;-78
2021/01/12 01:11:44;;;;;;;1.10;1.10;;;5.70;99.90;;;;;;5095918;28;20163;-78
2021/01/12 01:14:10;;;;;;;4.20;1.57;;;5.70;99.90;;;;;;5059157;28;20194;-78
2021/01/12 01:16:36;;;;;;;4.30;2.77;;;5.70;99.90;;;;;;5075492;28;20174;-79
2021/01/12 01:19:02;;;;;;;2.63;2.50;;;5.70;99.90;;;;;;5075055;28;20296;-78
2021/01/12 01:21:28;;;;;;;1.53;1.47;;;5.70;99.90;;;;;;5056795;28;20285;-78
2021/01/12 01:23:53;;;;;;;4.33;2.53;;;5.70;99.90;;;;;;5092548;28;20193;-78
2021/01/12 01:26:19;;;;;;;1.03;1.00;;;5.70;99.90;;;;;;5057092;28;20174;-79
2021/01/12 01:28:46;;;;;;;0.97;0.97;;;5.80;99.90;;;;;;5071660;28;20641;-78
2021/01/12 01:31:11;;;;;;;1.93;1.83;;;5.70;99.90;;;;;;5095309;28;20169;-79
2021/01/12 01:33:37;;;;;;;1.43;1.33;;;5.70;99.90;;;;;;5076843;28;20206;-79
2021/01/12 01:36:04;;;;;;;1.43;1.40;;;5.70;99.90;;;;;;5076935;28;20219;-79
2021/01/12 01:38:30;;;;;;;0.70;0.70;;;5.70;99.90;;;;;;5074718;28;20200;-79
2021/01/12 01:40:57;;;;;;;2.93;2.47;;;5.70;99.90;;;;;;5056968;28;20179;-79
2021/01/12 01:43:23;;;;;;;2.60;2.40;;;5.80;99.90;;;;;;5081205;28;20178;-79
2021/01/12 01:45:50;;;;;;;1.40;1.40;;;5.80;99.90;;;;;;5078618;28;20262;-79
2021/01/12 01:48:15;;;;;;;2.10;2.00;;;5.80;99.90;;;;;;5057359;28;20166;-79
2021/01/12 01:50:41;;;;;;;1.83;1.17;;;5.80;99.90;;;;;;5075723;28;20219;-79
2021/01/12 01:53:10;;;;;;;2.23;1.87;;;5.80;99.90;;;;;;5075548;28;20204;-80
2021/01/12 01:55:36;;;;;;;1.20;0.97;;;5.80;99.90;;;;;;5074784;28;20178;-79
2021/01/12 01:58:03;;;;;;;0.83;0.83;;;5.90;99.90;;;;;;5065839;28;20181;-79
2021/01/12 02:00:28;;;;;;;1.80;1.70;;;5.80;99.90;;;;;;5096783;28;20159;-79
2021/01/12 02:03:16;;;;;;;1.47;0.97;;;5.80;99.90;;;;;;5077089;28;20561;-79
2021/01/12 02:06:06;;;;;;;1.83;1.73;;;5.80;99.90;;;;;;5061498;28;20182;-79
2021/01/12 02:08:55;;;;;;;0.83;0.47;;;5.90;99.90;;;;;;5097009;28;20185;-79
2021/01/12 02:11:22;;;;;;;0.50;0.47;;;5.80;99.90;;;;;;5081522;28;20162;-79
2021/01/12 02:13:54;;;;;;;0.93;0.83;;;5.80;99.90;;;;;;5092329;28;20219;-80
2021/01/12 02:16:21;;;;;;;1.90;0.97;;;5.80;99.90;;;;;;5099865;28;20158;-79
2021/01/12 02:18:48;;;;;;;2.63;1.83;;;5.90;99.90;;;;;;5081832;28;20166;-80
2021/01/12 02:21:14;;;;;;;2.60;1.70;;;5.90;99.90;;;;;;5080381;28;20201;-79
2021/01/12 02:23:49;;;;;;;0.93;0.93;;;5.90;99.90;;;;;;5071989;28;20195;-79
2021/01/12 02:26:14;;;;;;;1.20;1.10;;;5.90;99.90;;;;;;5059284;28;20672;-79
2021/01/12 02:28:40;;;;;;;1.87;1.77;;;5.90;99.90;;;;;;5090589;28;20174;-78
2021/01/12 02:31:05;;;;;;;1.63;0.70;;;5.90;99.90;;;;;;5097352;28;20219;-79
2021/01/12 02:33:33;;;;;;;1.50;1.50;;;5.90;99.90;;;;;;5059270;28;20255;-79
2021/01/12 02:36:00;;;;;;;2.00;1.90;;;5.90;99.90;;;;;;5059510;28;20171;-79
2021/01/12 02:38:25;;;;;;;0.70;0.43;;;5.80;99.90;;;;;;5059436;28;20257;-79
2021/01/12 02:40:51;;;;;;;0.77;0.73;;;5.90;99.90;;;;;;5077324;28;20620;-79
2021/01/12 02:43:17;;;;;;;2.63;1.10;;;5.90;99.90;;;;;;5061412;28;20174;-79
2021/01/12 02:45:42;;;;;;;0.93;0.93;;;5.90;99.90;;;;;;5064309;28;20637;-80
2021/01/12 02:48:08;;;;;;;0.70;0.70;;;5.90;99.90;;;;;;5061965;28;20261;-79
2021/01/12 02:50:33;;;;;;;1.27;1.17;;;5.90;99.90;;;;;;5059400;28;20271;-79
2021/01/12 02:52:59;;;;;;;0.60;0.53;;;6.00;99.90;;;;;;5077303;28;20166;-79
2021/01/12 02:55:24;;;;;;;1.20;1.10;;;6.00;99.90;;;;;;5075467;28;20227;-79
2021/01/12 02:57:50;;;;;;;1.57;1.37;;;6.00;99.90;;;;;;5059210;28;20206;-79
2021/01/12 03:00:16;;;;;;;0.40;0.40;;;6.00;99.90;;;;;;5059809;28;20224;-80
2021/01/12 03:02:42;;;;;;;0.57;0.57;;;6.00;99.90;;;;;;5092536;28;20197;-79
2021/01/12 03:05:09;;;;;;;0.83;0.80;;;6.10;99.90;;;;;;5077301;28;20186;-80
2021/01/12 03:07:35;;;;;;;0.63;0.53;;;6.00;99.90;;;;;;5073687;28;20265;-79
2021/01/12 03:10:01;;;;;;;0.87;0.87;;;6.10;99.90;;;;;;5078967;28;20163;-80
2021/01/12 03:12:27;;;;;;;0.50;0.50;;;6.10;99.90;;;;;;5093573;28;20665;-80
2021/01/12 03:14:53;;;;;;;0.50;0.50;;;6.10;99.90;;;;;;5097770;28;20191;-79
2021/01/12 03:17:19;;;;;;;1.47;1.33;;;6.10;99.90;;;;;;5097647;28;20169;-80
2021/01/12 03:19:45;;;;;;;0.57;0.53;;;6.10;99.90;;;;;;5079578;28;20174;-79
2021/01/12 03:22:11;;;;;;;0.70;0.70;;;6.10;99.90;;;;;;5097687;28;20182;-80
2021/01/12 03:24:38;;;;;;;1.07;0.97;;;6.10;99.90;;;;;;5082799;28;20690;-80
2021/01/12 03:27:04;;;;;;;1.77;1.67;;;6.20;99.90;;;;;;5061103;28;20178;-80
2021/01/12 03:29:30;;;;;;;0.80;0.80;;;6.30;99.90;;;;;;5059424;28;20174;-81
2021/01/12 03:31:55;;;;;;;1.60;1.23;;;6.40;99.90;;;;;;5077224;28;20615;-80
2021/01/12 03:34:21;;;;;;;0.30;0.10;;;6.40;99.90;;;;;;5079247;28;20304;-80
2021/01/12 03:36:47;;;;;;;1.03;1.00;;;6.30;99.90;;;;;;5097619;28;20174;-80
2021/01/12 03:39:12;;;;;;;0.63;0.63;;;6.40;99.90;;;;;;5079673;28;20170;-80
2021/01/12 03:41:38;;;;;;;0.30;0.30;;;6.30;99.90;;;;;;5098124;28;20222;-80
2021/01/12 03:44:04;;;;;;;2.00;0.70;;;6.30;99.90;;;;;;5079768;28;20224;-79
2021/01/12 03:46:30;;;;;;;0.43;0.23;;;6.30;99.90;;;;;;5059851;28;20609;-80
2021/01/12 03:48:55;;;;;;;0.37;0.37;;;6.30;99.90;;;;;;5076270;28;20209;-80
2021/01/12 03:51:23;;;;;;;2.20;0.87;;;6.20;99.90;;;;;;5071071;28;20229;-80
2021/01/12 03:53:49;;;;;;;1.70;1.30;;;6.20;99.90;;;;;;5079835;28;20657;-80
2021/01/12 03:56:14;;;;;;;0.50;0.50;;;6.20;99.90;;;;;;5079691;28;20180;-80
2021/01/12 03:58:41;;;;;;;1.00;1.00;;;6.30;99.90;;;;;;5075501;28;20210;-80
2021/01/12 04:01:07;;;;;;;0.37;0.37;;;6.30;99.90;;;;;;5078625;28;20218;-80
2021/01/12 04:03:32;;;;;;;1.20;0.97;;;6.20;99.90;;;;;;5077717;28;20232;-79
2021/01/12 04:06:01;;;;;;;0.63;0.63;;;6.20;99.90;;;;;;5073349;28;20234;-79
2021/01/12 04:08:27;;;;;;;0.80;0.80;;;6.20;99.90;;;;;;5073192;28;20182;-79
2021/01/12 04:10:53;;;;;;;2.23;1.37;;;6.20;99.90;;;;;;5077876;28;20167;-79
2021/01/12 04:13:18;;;;;;;0.60;0.60;;;6.20;99.90;;;;;;5095928;28;20162;-79
2021/01/12 04:15:44;;;;;;;0.10;0.10;;;6.20;99.90;;;;;;5070728;28;20520;-80
2021/01/12 04:18:09;;;;;;;0.30;0.30;;;6.30;99.90;;;;;;5057740;28;20168;-80
2021/01/12 04:20:35;;;;;;;0.33;0.33;;;6.30;99.90;;;;;;5057680;28;20168;-79
2021/01/12 04:23:00;;;;;;;0.50;0.47;;;6.40;99.90;;;;;;5080782;28;20190;-79
2021/01/12 04:25:26;;;;;;;0.10;0.10;;;6.40;99.90;;;;;;5077419;28;20275;-80
2021/01/12 04:27:52;;;;;;;0.30;0.30;;;6.40;99.90;;;;;;5092085;28;20186;-80
2021/01/12 04:30:17;;;;;;;0.60;0.60;;;6.40;99.90;;;;;;5057218;28;20601;-79
2021/01/12 04:32:43;;;;;;;0.97;0.40;;;6.40;99.90;;;;;;5057556;28;20224;-79
2021/01/12 04:35:09;;;;;;;0.30;0.30;;;6.40;99.90;;;;;;5056965;28;20232;-80
2021/01/12 04:37:34;;;;;;;0.50;0.50;;;6.40;99.90;;;;;;5074172;28;20210;-80
2021/01/12 04:40:00;;;;;;;0.20;0.20;;;6.40;99.90;;;;;;5091859;28;20255;-79
2021/01/12 04:42:32;;;;;;;0.33;0.23;;;6.50;99.90;;;;;;5072709;28;20306;-79
2021/01/12 04:44:58;;;;;;;0.30;0.30;;;6.40;99.90;;;;;;5077515;28;20249;-79
2021/01/12 04:47:24;;;;;;;2.13;1.17;;;6.50;99.90;;;;;;5078177;28;20521;-79
2021/01/12 04:49:49;;;;;;;0.40;0.40;;;6.50;99.90;;;;;;5077301;28;20262;-79
2021/01/12 04:52:15;;;;;;;0.30;0.30;;;6.60;99.90;;;;;;5077203;28;20171;-80
2021/01/12 04:54:41;;;;;;;0.27;0.27;;;6.60;99.90;;;;;;5077209;28;20188;-80
2021/01/12 04:57:12;;;;;;;0.90;0.77;;;6.60;99.90;;;;;;5074954;28;20177;-79
2021/01/12 04:59:37;;;;;;;0.73;0.73;;;6.60;99.90;;;;;;5048406;28;20194;-80
2021/01/12 05:02:03;;;;;;;0.47;0.47;;;6.70;99.90;;;;;;5077500;28;20318;-80
2021/01/12 05:04:29;;;;;;;0.33;0.33;;;6.60;99.90;;;;;;5095848;28;20193;-79
2021/01/12 05:06:55;;;;;;;0.60;0.60;;;6.60;99.90;;;;;;5096265;28;20162;-80
2021/01/12 05:09:22;;;;;;;0.37;0.37;;;6.70;99.90;;;;;;5061538;28;20179;-79
2021/01/12 05:11:48;;;;;;;0.50;0.50;;;6.70;99.90;;;;;;5057980;28;20649;-79
2021/01/12 05:14:16;;;;;;;0.33;0.33;;;6.70;99.90;;;;;;5057582;28;20621;-79
2021/01/12 05:16:50;;;;;;;0.23;0.03;;;6.70;99.90;;;;;;5062787;28;20340;-79
2021/01/12 05:19:20;;;;;;;0.30;0.27;;;6.70;99.90;;;;;;5061430;28;20174;-79
2021/01/12 05:21:47;;;;;;;0.30;0.30;;;6.70;99.90;;;;;;5075709;28;20201;-80
2021/01/12 05:24:17;;;;;;;4.40;1.43;;;6.70;99.90;;;;;;5077814;28;20223;-79
2021/01/12 05:26:42;;;;;;;0.37;0.27;;;6.80;99.90;;;;;;5097000;28;20705;-80
2021/01/12 05:29:08;;;;;;;0.93;0.93;;;6.80;99.90;;;;;;5065345;28;20264;-80
2021/01/12 05:31:35;;;;;;;0.97;0.97;;;6.80;99.90;;;;;;5078062;28;20529;-80
2021/01/12 05:34:08;;;;;;;0.10;0.10;;;6.80;99.90;;;;;;5081426;23;20263;-81
2021/01/12 05:36:53;;;;;;;0.33;0.33;;;6.80;99.90;;;;;;5073463;28;20166;-80
2021/01/12 05:39:20;;;;;;;0.30;0.30;;;6.80;99.90;;;;;;5067890;28;20206;-81
2021/01/12 05:41:47;;;;;;;0.27;0.27;;;6.80;99.90;;;;;;5067593;28;20243;-81
2021/01/12 05:44:14;;;;;;;0.03;0.03;;;6.90;99.90;;;;;;5057081;28;20202;-82
2021/01/12 05:46:43;;;;;;;0.40;0.40;;;6.80;99.90;;;;;;5055314;28;20170;-82
2021/01/12 05:49:09;;;;;;;0.17;0.17;;;6.80;99.90;;;;;;5055601;28;20191;-81
2021/01/12 05:51:46;;;;;;;0.13;0.13;;;6.90;99.90;;;;;;5066742;28;20258;-83
2021/01/12 05:54:27;;;;;;;0.20;0.20;;;6.90;99.90;;;;;;5074035;28;20203;-81
2021/01/12 05:56:58;;;;;;;0.00;0.00;;;6.90;99.90;;;;;;5075481;28;20201;-82
2021/01/12 05:59:28;;;;;;;0.57;0.50;;;7.00;99.90;;;;;;5056173;28;20179;-83
2021/01/12 06:01:55;;;;;;;0.07;0.07;;;7.00;99.90;;;;;;5055493;28;20195;-82
2021/01/12 06:04:22;;;;;;;0.80;0.80;;;7.00;99.90;;;;;;5074877;28;20660;-82
2021/01/12 06:06:49;;;;;;;0.27;0.27;;;6.90;99.90;;;;;;5067612;28;20647;-82
2021/01/12 06:09:16;;;;;;;0.20;0.10;;;6.90;99.90;;;;;;5054020;28;20602;-82
2021/01/12 06:11:44;;;;;;;0.50;0.50;;;6.90;99.90;;;;;;5070080;28;20178;-82
2021/01/12 06:14:15;;;;;;;0.10;0.10;;;6.90;99.90;;;;;;5056431;28;20253;-83
2021/01/12 06:16:43;;;;;;;0.43;0.43;;;6.90;99.90;;;;;;5054217;28;20350;-82
2021/01/12 06:19:17;;;;;;;0.83;0.83;;;7.00;99.90;;;;;;5056002;28;20189;-82
2021/01/12 06:21:55;;;;;;;0.70;0.70;;;7.00;99.90;;;;;;5054361;28;20277;-82
2021/01/12 06:24:37;;;;;;;0.67;0.67;;;7.00;99.90;;;;;;5054446;28;20200;-82
2021/01/12 06:27:09;;;;;;;0.50;0.50;;;7.00;99.90;;;;;;5060123;28;20230;-82
2021/01/12 06:29:34;;;;;;;0.20;0.20;;;7.00;99.90;;;;;;5074810;28;20305;-83
2021/01/12 06:32:00;;;;;;;0.27;0.27;;;7.10;99.90;;;;;;5076439;28;20198;-83
2021/01/12 06:34:26;;;;;;;0.13;0.13;;;7.10;99.90;;;;;;5056326;28;20286;-81
2021/01/12 06:36:54;;;;;;;0.00;0.00;;;7.10;99.90;;;;;;5055052;28;20225;-82
2021/01/12 06:39:22;;;;;;;0.13;0.13;;;7.10;99.90;;;;;;5056628;28;20168;-83
2021/01/12 06:41:50;;;;;;;0.27;0.27;;;7.20;99.90;;;;;;5056716;28;20223;-83
2021/01/12 06:44:23;;;;;;;0.47;0.47;;;7.30;99.90;;;;;;5055364;28;20196;-86
2021/01/12 06:46:51;;;;;;;1.20;0.33;;;7.30;99.90;;;;;;5056594;28;20164;-84
2021/01/12 06:49:25;;;;;;;0.50;0.50;;;7.40;99.90;;;;;;5073425;28;20178;-81
2021/01/12 06:52:06;;;;;;;2.40;0.50;;;7.40;99.90;;;;;;5074051;28;20178;-82
2021/01/12 06:54:43;;;;;;;0.47;0.47;;;7.30;99.90;;;;;;5056157;28;20191;-81
2021/01/12 06:57:14;;;;;;;0.80;0.80;;;7.40;99.90;;;;;;5059202;28;20177;-81
2021/01/12 06:59:41;;;;;;;0.17;0.17;;;7.40;99.90;;;;;;5057804;28;20147;-82
2021/01/12 07:02:27;;;;;;;0.17;0.17;;;7.40;99.90;;;;;;5057273;28;20191;-82
2021/01/12 07:04:59;;;;;;;1.00;0.93;;;7.30;99.90;;;;;;5056179;28;20201;-82
2021/01/12 07:07:28;;;;;;;0.50;0.50;;;7.40;99.90;;;;;;5058848;28;20164;-84
2021/01/12 07:09:58;;;;;;;0.47;0.47;;;7.40;99.90;;;;;;5057286;28;20673;-83
2021/01/12 07:12:25;;;;;;;0.63;0.63;;;7.50;99.90;;;;;;5060460;28;20659;-83
2021/01/12 07:14:53;;;;;;;1.37;0.40;;;7.40;99.90;;;;;;5061417;28;20203;-84
2021/01/12 07:17:30;;;;;;;0.43;0.43;;;7.50;99.90;;;;;;5058103;28;20167;-81
2021/01/12 07:20:06;;;;;;;0.93;0.83;;;7.50;99.90;;;;;;5058700;28;20221;-82
2021/01/12 07:22:33;;;;;;;0.33;0.33;;;7.60;99.90;;;;;;5056906;28;20808;-81
2021/01/12 07:25:01;;;;;;;0.57;0.53;;;7.70;99.90;;;;;;5056158;28;20198;-82
2021/01/12 07:27:27;;;;;;;0.40;0.40;;;7.60;99.90;;;;;;5062902;28;20163;-83
2021/01/12 07:29:53;;;;;;;0.50;0.40;;;7.60;99.90;;;;;;5066572;28;20526;-81
2021/01/12 07:32:34;;;;;;;0.53;0.53;;;7.60;99.90;;;;;;5059036;28;20535;-82
2021/01/12 07:35:04;;;;;;;0.40;0.40;;;7.70;99.90;;;;;;5056236;28;20218;-81
2021/01/12 07:37:33;;;;;;;0.10;0.10;;;7.60;99.90;;;;;;5065083;28;20224;-83
2021/01/12 07:39:59;;;;;;;0.37;0.37;;;7.60;99.90;;;;;;5058067;28;20176;-83
2021/01/12 07:42:25;;;;;;;2.27;1.23;;;7.60;99.90;;;;;;5056548;28;20570;-81
2021/01/12 07:44:51;;;;;;;0.60;0.60;;;7.60;99.90;;;;;;5057061;28;20728;-81
2021/01/12 07:47:17;;;;;;;0.20;0.20;;;7.60;99.90;;;;;;5069088;28;20179;-83
2021/01/12 07:49:44;;;;;;;0.57;0.57;;;7.50;99.90;;;;;;5076596;28;20224;-84
2021/01/12 07:52:09;;;;;;;0.10;0.10;;;7.50;99.90;;;;;;5077037;28;20503;-83
2021/01/12 07:54:35;;;;;;;0.30;0.30;;;7.60;99.90;;;;;;5065630;28;20282;-84
2021/01/12 07:57:01;;;;;;;1.33;1.13;;;7.60;99.90;;;;;;5060118;28;20168;-83
2021/01/12 07:59:27;;;;;;;0.30;0.30;;;7.60;99.90;;;;;;5076753;28;20183;-83
2021/01/12 08:01:54;;;;;;;0.60;0.60;;;7.60;99.90;;;;;;5069452;28;20198;-82
2021/01/12 08:04:19;;;;;;;0.27;0.27;;;7.60;99.90;;;;;;5059003;28;20187;-83
2021/01/12 08:06:48;;;;;;;1.30;0.77;;;7.60;99.90;;;;;;5054458;28;20174;-84
2021/01/12 08:09:24;;;;;;;0.20;0.20;;;7.60;99.90;;;;;;5053905;28;20168;-84
2021/01/12 08:11:54;;;;;;;0.53;0.53;;;7.60;99.90;;;;;;5054456;28;20175;-83
2021/01/12 08:14:23;;;;;;;0.33;0.30;;;7.70;99.90;;;;;;5075260;28;20665;-85
2021/01/12 08:16:51;;;;;;;0.17;0.17;;;7.60;99.90;;;;;;5074141;28;20206;-83
2021/01/12 08:19:22;;;;;;;0.83;0.67;;;7.60;99.90;;;;;;5060527;28;20170;-83
2021/01/12 08:21:48;;;;;;;0.17;0.17;;;7.70;99.90;;;;;;5055532;28;20559;-84
2021/01/12 08:24:23;;;;;;;0.20;0.20;;;7.60;99.90;;;;;;5068059;28;20204;-85
2021/01/12 08:26:49;;;;;;;0.50;0.50;;;7.60;99.90;;;;;;5059116;28;20516;-86
2021/01/12 08:29:20;;;;;;;1.00;1.00;;;7.50;99.90;;;;;;5075218;28;20182;-81
2021/01/12 08:31:59;;;;;;;0.63;0.63;;;7.50;99.90;;;;;;5076812;28;20579;-83
2021/01/12 08:34:27;;;;;;;0.73;0.73;;;7.60;99.90;;;;;;5076072;28;20246;-82
2021/01/12 08:36:55;;;;;;;0.83;0.83;;;7.60;99.90;;;;;;5074762;28;20634;-82
2021/01/12 08:39:23;;;;;;;0.87;0.70;;;7.70;99.90;;;;;;5075764;28;20186;-82
2021/01/12 08:41:50;;;;;;;0.73;0.67;;;7.70;99.90;;;;;;5064044;28;20265;-83
2021/01/12 08:44:16;;;;;;;0.33;0.33;;;7.70;99.90;;;;;;5075778;28;20202;-83
2021/01/12 08:46:43;;;;;;;0.87;0.73;;;7.60;99.90;;;;;;5073208;28;20213;-82
2021/01/12 08:49:08;;;;;;;0.47;0.43;;;7.60;99.90;;;;;;5076273;28;20620;-81
2021/01/12 08:51:35;;;;;;;0.67;0.67;;;7.70;99.90;;;;;;5069021;28;20176;-82
2021/01/12 08:54:01;;;;;;;0.57;0.57;;;7.70;99.90;;;;;;5064710;28;20206;-82
2021/01/12 08:56:27;;;;;;;0.37;0.37;;;7.70;99.90;;;;;;5070202;28;20639;-81
2021/01/12 08:59:07;;;;;;;0.37;0.37;;;7.60;99.90;;;;;;5061496;28;20183;-82
2021/01/12 09:01:35;;;;;;;0.40;0.40;;;7.60;99.90;;;;;;5054726;28;20340;-81
2021/01/12 09:04:08;;;;;;;0.60;0.60;;;7.60;99.90;;;;;;5056044;28;20184;-82
2021/01/12 09:06:35;;;;;;;0.17;0.17;;;7.70;99.90;;;;;;5071617;28;20543;-82
2021/01/12 09:09:08;;;;;;;0.03;0.03;;;7.70;99.90;;;;;;5076324;28;20170;-80
2021/01/12 09:11:47;;;;;;;0.33;0.33;;;7.70;99.90;;;;;;5060819;28;20543;-80
2021/01/12 09:14:13;;;;;;;0.27;0.27;;;7.70;99.90;;;;;;5056199;28;20710;-82
2021/01/12 09:16:40;;;;;;;0.20;0.20;;;7.70;99.90;;;;;;5054358;28;20183;-82
2021/01/12 09:19:16;;;;;;;0.40;0.40;;;7.70;99.90;;;;;;5056313;28;20198;-81
2021/01/12 09:21:43;;;;;;;0.17;0.17;;;7.70;99.90;;;;;;5056414;28;20202;-81
2021/01/12 09:24:15;;;;;;;0.17;0.17;;;7.60;99.90;;;;;;5062761;28;20198;-82
2021/01/12 09:26:41;;;;;;;0.00;0.00;;;7.60;99.90;;;;;;5077151;28;20492;-82
2021/01/12 09:29:08;;;;;;;0.30;0.30;;;7.60;99.90;;;;;;5068131;28;20174;-83
2021/01/12 09:31:43;;;;;;;0.00;0.00;;;7.60;99.90;;;;;;5056636;28;20178;-83
2021/01/12 09:34:08;;;;;;;0.00;0.00;;;7.60;99.90;;;;;;5056147;28;20771;-83
2021/01/12 09:36:34;;;;;;;0.00;0.00;;;7.50;99.90;;;;;;5053773;28;20180;-85
2021/01/12 09:39:07;;;;;;;0.03;0.03;;;7.60;99.90;;;;;;5072332;28;20188;-83
2021/01/12 09:41:32;;;;;;;0.13;0.13;;;7.60;99.90;;;;;;5074881;28;20182;-83
2021/01/12 09:43:58;;;;;;;0.30;0.30;;;7.60;99.90;;;;;;5056764;28;20205;-82
2021/01/12 09:46:24;;;;;;;0.00;0.00;;;7.60;99.90;;;;;;5052696;28;20182;-82
2021/01/12 09:48:50;;;;;;;0.13;0.13;;;7.50;99.90;;;;;;5056454;28;20194;-81
2021/01/12 09:51:15;;;;;;;0.17;0.17;;;7.40;99.90;;;;;;5057710;28;20263;-83
2021/01/12 09:53:42;;;;;;;0.00;0.00;;;7.50;99.90;;;;;;5059371;28;20225;-82
2021/01/12 09:56:15;;;;;;;0.10;0.10;;;7.50;99.90;;;;;;5059475;28;20171;-85
2021/01/12 09:58:41;;;;;;;0.50;0.37;;;7.50;99.90;;;;;;5069162;28;20538;-82
2021/01/12 10:01:07;;;;;;;0.13;0.13;;;7.60;99.90;;;;;;5076521;28;20198;-82
2021/01/12 10:03:33;;;;;;;0.37;0.37;;;7.60;99.90;;;;;;5076431;28;20190;-83
2021/01/12 10:05:59;;;;;;;0.00;0.00;;;7.70;99.90;;;;;;5060314;28;20175;-82
2021/01/12 10:08:27;;;;;;;0.00;0.00;;;7.80;99.90;;;;;;5053430;28;20175;-80
2021/01/12 10:10:53;;;;;;;0.10;0.10;;;7.80;99.90;;;;;;5052466;28;20253;-80
2021/01/12 10:13:19;;;;;;;3.00;0.52;;;8.00;99.90;;;;;;5062718;28;20410;-81
2021/01/12 10:15:46;;;;;;;0.40;0.40;;;7.90;99.90;;;;;;5074100;28;20175;-83
2021/01/12 10:18:11;;;;;;;0.57;0.23;;;8.00;99.90;;;;;;5061336;28;20203;-81
2021/01/12 10:20:37;;;;;;;0.10;0.10;;;8.10;99.90;;;;;;5053123;28;20619;-82
2021/01/12 10:23:03;;;;;;;1.17;0.67;;;8.10;99.90;;;;;;5062377;28;20201;-80
2021/01/12 10:25:28;;;;;;;0.00;0.00;;;8.10;99.90;;;;;;5078753;28;20262;-83
2021/01/12 10:27:55;;;;;;;0.43;0.37;;;8.20;99.90;;;;;;5077297;28;20752;-81
2021/01/12 10:30:21;;;;;;;0.30;0.30;;;8.10;99.90;;;;;;5078387;28;20220;-83
2021/01/12 10:32:47;;;;;;;0.40;0.30;;;8.00;99.90;;;;;;5065036;28;20171;-86
2021/01/12 10:35:13;;;;;;;0.43;0.33;;;8.10;99.90;;;;;;5058336;28;20667;-83
2021/01/12 10:37:39;;;;;;;0.27;0.27;;;8.00;99.90;;;;;;5060009;28;20542;-82
2021/01/12 10:40:06;;;;;;;0.20;0.20;;;8.00;99.90;;;;;;5060059;28;20186;-83
2021/01/12 10:42:31;;;;;;;0.20;0.20;;;8.00;99.90;;;;;;5061513;28;20248;-82
2021/01/12 10:44:57;;;;;;;0.00;0.00;;;8.00;99.90;;;;;;5079052;28;20720;-84
2021/01/12 10:47:23;;;;;;;0.10;0.10;;;8.00;99.90;;;;;;5078138;28;20162;-83
2021/01/12 10:49:48;;;;;;;1.00;1.00;;;8.00;99.90;;;;;;5077612;28;20179;-82
2021/01/12 10:52:14;;;;;;;0.65;0.40;;;8.00;99.90;;;;;;5077292;28;20453;-85
2021/01/12 10:54:41;;;;;;;0.20;0.20;;;7.90;99.90;;;;;;5081088;28;20270;-83
2021/01/12 10:57:10;;;;;;;0.20;0.20;;;8.00;99.90;;;;;;5078691;28;20179;-81
2021/01/12 10:59:36;;;;;;;0.47;0.47;;;8.10;99.90;;;;;;5070838;28;20705;-84
2021/01/12 11:02:02;;;;;;;0.03;0.03;;;8.10;99.90;;;;;;5060080;28;20199;-84
2021/01/12 11:04:29;;;;;;;0.30;0.27;;;8.10;99.90;;;;;;5058358;28;20579;-82
2021/01/12 11:06:55;;;;;;;2.83;1.83;;;8.10;99.90;;;;;;5072996;28;20175;-83
2021/01/12 11:09:22;;;;;;;0.67;0.53;;;8.20;99.90;;;;;;5060895;28;20171;-82
2021/01/12 11:11:49;;;;;;;0.00;0.00;;;8.20;99.90;;;;;;5060862;28;20183;-81
2021/01/12 11:14:18;;;;;;;1.10;0.17;;;8.00;99.90;;;;;;5081729;28;20605;-83
2021/01/12 11:16:44;;;;;;;0.10;0.07;;;7.90;99.90;;;;;;5080884;28;20202;-82
2021/01/12 11:19:10;;;;;;;0.03;0.03;;;7.90;99.90;;;;;;5081474;28;20182;-83
2021/01/12 11:21:50;;;;;;;0.00;0.00;;;7.80;99.90;;;;;;5080930;28;20191;-86
2021/01/12 11:24:20;;;;;;;0.00;0.00;;;7.70;99.90;;;;;;5060685;28;20678;-84
2021/01/12 11:26:46;;;;;;;0.17;0.13;;;7.60;99.90;;;;;;5062102;28;20266;-82
2021/01/12 11:29:11;;;;;;;0.00;0.00;;;7.80;99.90;;;;;;5077393;28;20189;-83
2021/01/12 11:31:39;;;;;;;0.27;0.10;;;7.70;99.90;;;;;;5077979;28;20171;-80
2021/01/12 11:34:06;;;;;;;0.30;0.30;;;7.80;99.90;;;;;;5067122;28;20227;-81
2021/01/12 11:36:34;;;;;;;0.33;0.10;;;7.80;99.90;;;;;;5058241;28;20651;-82
2021/01/12 11:39:00;;;;;;;0.00;0.00;;;7.90;99.90;;;;;;5058098;28;20171;-82
2021/01/12 11:41:26;;;;;;;0.13;0.13;;;7.80;99.90;;;;;;5060702;28;20206;-82
2021/01/12 11:43:52;;;;;;;0.00;0.00;;;7.80;99.90;;;;;;5072558;28;20197;-81
2021/01/12 11:46:27;;;;;;;0.43;0.22;;;7.70;99.90;;;;;;5064144;28;20420;-82
2021/01/12 11:48:52;;;;;;;0.20;0.00;;;7.70;99.90;;;;;;5057741;28;20419;-80
2021/01/12 11:51:18;;;;;;;0.00;0.00;;;7.60;99.90;;;;;;5055093;28;20742;-79
2021/01/12 11:53:43;;;;;;;0.00;0.00;;;7.60;99.90;;;;;;5059019;28;20222;-79
2021/01/12 11:56:09;;;;;;;0.00;0.00;;;7.60;99.90;;;;;;5073146;28;20258;-79
2021/01/12 11:58:34;;;;;;;0.00;0.00;;;7.70;99.90;;;;;;5076610;28;20167;-80
2021/01/12 12:01:00;;;;;;;0.23;0.23;;;7.70;99.90;;;;;;5075166;28;20170;-82
2021/01/12 12:03:25;;;;;;;0.33;0.33;;;7.80;99.90;;;;;;5074206;28;20353;-79
2021/01/12 12:05:51;;;;;;;0.10;0.10;;;7.80;99.90;;;;;;5065465;28;20720;-79
2021/01/12 12:08:16;;;;;;;1.00;0.30;;;7.80;99.90;;;;;;5054792;28;20406;-79
2021/01/12 12:10:42;;;;;;;0.77;0.67;;;7.70;99.90;;;;;;5055645;28;20176;-80
2021/01/12 12:13:07;;;;;;;0.10;0.10;;;7.60;99.90;;;;;;5055980;28;20634;-82
2021/01/12 12:15:33;;;;;;;0.10;0.10;;;7.60;99.90;;;;;;5058759;28;20289;-79
2021/01/12 12:17:59;;;;;;;0.30;0.30;;;7.60;99.90;;;;;;5062961;28;20206;-79
2021/01/12 12:20:25;;;;;;;0.00;0.00;;;7.60;99.90;;;;;;5067179;28;20171;-79
2021/01/12 12:22:51;;;;;;;0.20;0.20;;;7.50;99.90;;;;;;5066196;28;20200;-81
2021/01/12 12:25:16;;;;;;;0.00;0.00;;;7.50;99.90;;;;;;5077190;28;20190;-81
2021/01/12 12:27:42;;;;;;;0.20;0.20;;;7.50;99.90;;;;;;5060421;28;20566;-80
2021/01/12 12:30:08;;;;;;;0.00;0.00;;;7.60;99.90;;;;;;5075085;28;20170;-82
2021/01/12 12:32:34;;;;;;;0.97;0.93;;;7.50;99.90;;;;;;5074507;28;20178;-81
2021/01/12 12:35:00;;;;;;;0.00;0.00;;;7.60;99.90;;;;;;5066291;28;20212;-82
2021/01/12 12:37:25;;;;;;;0.00;0.00;;;7.70;99.90;;;;;;5056595;28;20721;-80
2021/01/12 12:39:51;;;;;;;0.00;0.00;;;7.70;99.90;;;;;;5054940;28;20701;-81
2021/01/12 12:42:16;;;;;;;0.13;0.13;;;7.60;99.90;;;;;;5057212;28;20241;-80
2021/01/12 12:44:42;;;;;;;0.00;0.00;;;7.60;99.90;;;;;;5074341;28;20313;-80
2021/01/12 12:47:08;;;;;;;0.47;0.13;;;7.60;99.90;;;;;;5075440;28;20170;-80
2021/01/12 12:49:34;;;;;;;0.00;0.00;;;7.60;99.90;;;;;;5075245;28;20163;-84
2021/01/12 12:52:00;;;;;;;0.10;0.10;;;7.70;99.90;;;;;;5073952;28;20175;-80
2021/01/12 12:54:26;;;;;;;0.00;0.00;;;7.70;99.90;;;;;;5065877;28;20206;-80
2021/01/12 12:56:55;;;;;;;0.00;0.00;;;7.60;99.90;;;;;;5057212;28;20172;-80
2021/01/12 12:59:21;;;;;;;0.10;0.10;;;7.50;99.90;;;;;;5057611;28;20171;-82